logo dgac
Martes 27 de Junio del 2017
Buscar por aerodromo o helipuerto
Ingrese nombre de aeródromo, localidad o designador OACI:

Buscar por Fir

METAR del 27-06-2017 a las 06:00 UTC
METAR SCRM 270600Z 25036G46KT 9999 BKN023 M01/M04 Q0975
Viento: dirección 250 grados, velocidad 36 nudos, con ráfagas de velocidad máxima de 46Nudos
Visibilidad: 10 km o más
Nubes: Nublado a 2300 pies sobre el nivel del aeródromo
Temperatura: -1 °C
Rocío: -4 °C
Humedad_relativa: 80%
Presión: 975 hPa
METAR del 27-06-2017 a las 03:00 UTC
METAR SCRM 270300Z 26040G52KT 9999 BKN013 OVC020 M00/M02 Q0972
Viento: dirección 260 grados, velocidad 40 nudos, con ráfagas de velocidad máxima de 52Nudos
Visibilidad: 10 km o más
Nubes: Nublado a 1300 pies sobre el nivel del aeródromo
Nubes: Cubierto a 2000 pies sobre el nivel del aeródromo
Temperatura: 0 °C
Rocío: -2 °C
Humedad_relativa: 86%
Presión: 972 hPa
METAR del 27-06-2017 a las 00:00 UTC
METAR SCRM 270000Z 28043G54KT 2000 SN OVC013 M01/M02 Q0975
Viento: dirección 280 grados, velocidad 43 nudos, con ráfagas de velocidad máxima de 54Nudos
Visibilidad: 2000 metros
Nieve
Nubes: Cubierto a 1300 pies sobre el nivel del aeródromo
Temperatura: -1 °C
Rocío: -2 °C
Humedad_relativa: 93%
Presión: 975 hPa
METAR del 26-06-2017 a las 23:00 UTC
METAR SCRM 262300Z 28043G56KT 9999 BKN043 M00/M03 Q0977
Viento: dirección 280 grados, velocidad 43 nudos, con ráfagas de velocidad máxima de 56Nudos
Visibilidad: 10 km o más
Nubes: Nublado a 4300 pies sobre el nivel del aeródromo
Temperatura: 0 °C
Rocío: -3 °C
Humedad_relativa: 80%
Presión: 977 hPa
METAR del 26-06-2017 a las 22:00 UTC
METAR SCRM 262200Z 27040G50KT 9999 OVC033 M00/M03 Q0978
Viento: dirección 270 grados, velocidad 40 nudos, con ráfagas de velocidad máxima de 50Nudos
Visibilidad: 10 km o más
Nubes: Cubierto a 3300 pies sobre el nivel del aeródromo
Temperatura: 0 °C
Rocío: -3 °C
Humedad_relativa: 80%
Presión: 978 hPa
METAR del 26-06-2017 a las 21:00 UTC
METAR SCRM 262100Z 28042KT 9999 OVC020 M01/M02 Q0980
Viento: dirección 280 grados, velocidad 42 nudos
Visibilidad: 10 km o más
Nubes: Cubierto a 2000 pies sobre el nivel del aeródromo
Temperatura: -1 °C
Rocío: -2 °C
Humedad_relativa: 93%
Presión: 980 hPa
METAR del 26-06-2017 a las 20:00 UTC
METAR SCRM 262000Z 28035KT 2000 IC OVC016 M01/M02 Q0981
Viento: dirección 280 grados, velocidad 35 nudos
Visibilidad: 2000 metros
Cristales de hielo
Nubes: Cubierto a 1600 pies sobre el nivel del aeródromo
Temperatura: -1 °C
Rocío: -2 °C
Humedad_relativa: 93%
Presión: 981 hPa
METAR del 26-06-2017 a las 19:00 UTC
METAR SCRM 261900Z 30029KT 1500 -SN BLSN BKN008 M02/M02 Q0983
Viento: dirección 300 grados, velocidad 29 nudos
Visibilidad: 1500 metros
Débil Nieve
Nieve
Nubes: Nublado a 800 pies sobre el nivel del aeródromo
Temperatura: -2 °C
Rocío: -2 °C
Humedad_relativa: 100%
Presión: 983 hPa
METAR del 26-06-2017 a las 18:00 UTC
METAR SCRM 261800Z 28028KT 3000 DRSN OVC010 M03/M04 Q0985
Viento: dirección 280 grados, velocidad 28 nudos
Visibilidad: 3000 metros
A poca altura Nieve
Nubes: Cubierto a 1000 pies sobre el nivel del aeródromo
Temperatura: -3 °C
Rocío: -4 °C
Humedad_relativa: 93%
Presión: 985 hPa
METAR del 26-06-2017 a las 17:00 UTC
METAR SCRM 261700Z 26027KT 9999 BKN040 M03/M06 Q0986
Viento: dirección 260 grados, velocidad 27 nudos
Visibilidad: 10 km o más
Nubes: Nublado a 4000 pies sobre el nivel del aeródromo
Temperatura: -3 °C
Rocío: -6 °C
Humedad_relativa: 80%
Presión: 986 hPa